sensor_id;sensor_type;location;lat;lon;timestamp;pressure;altitude;pressure_sealevel;temperature;humidity
13952;BME280;39535;52.192;9.886;2023-04-07T00:00:06;100950.84;;;6.27;59.26
13952;BME280;39535;52.192;9.886;2023-04-07T00:02:32;100949.09;;;6.23;59.55
13952;BME280;39535;52.192;9.886;2023-04-07T00:05:00;100936.09;;;6.18;60.33
13952;BME280;39535;52.192;9.886;2023-04-07T00:07:27;100914.38;;;6.04;60.11
13952;BME280;39535;52.192;9.886;2023-04-07T00:09:53;100905.75;;;6.03;60.48
13952;BME280;39535;52.192;9.886;2023-04-07T00:12:20;100888.34;;;5.90;61.04
13952;BME280;39535;52.192;9.886;2023-04-07T00:14:46;100875.44;;;5.93;60.76
13952;BME280;39535;52.192;9.886;2023-04-07T00:17:12;100866.78;;;5.91;60.18
13952;BME280;39535;52.192;9.886;2023-04-07T00:19:39;100865.03;;;5.91;60.23
13952;BME280;39535;52.192;9.886;2023-04-07T00:22:06;100871.75;;;5.66;60.57
13952;BME280;39535;52.192;9.886;2023-04-07T00:24:32;100867.44;;;5.67;61.00
13952;BME280;39535;52.192;9.886;2023-04-07T00:26:59;100851.81;;;5.54;60.08
13952;BME280;39535;52.192;9.886;2023-04-07T00:29:26;100844.00;;;5.53;59.15
13952;BME280;39535;52.192;9.886;2023-04-07T00:31:52;100863.03;;;5.56;59.44
13952;BME280;39535;52.192;9.886;2023-04-07T00:34:18;100888.97;;;5.63;60.08
13952;BME280;39535;52.192;9.886;2023-04-07T00:36:45;100874.34;;;5.66;59.09
13952;BME280;39535;52.192;9.886;2023-04-07T00:39:17;100892.56;;;5.77;59.39
13952;BME280;39535;52.192;9.886;2023-04-07T00:41:43;100896.94;;;5.81;59.39
13952;BME280;39535;52.192;9.886;2023-04-07T00:44:10;100891.72;;;5.83;58.57
13952;BME280;39535;52.192;9.886;2023-04-07T00:46:36;100903.00;;;5.83;59.21
13952;BME280;39535;52.192;9.886;2023-04-07T00:49:03;100904.69;;;5.84;60.17
13952;BME280;39535;52.192;9.886;2023-04-07T00:51:29;100889.13;;;5.83;60.54
13952;BME280;39535;52.192;9.886;2023-04-07T00:53:56;100885.75;;;5.87;60.14
13952;BME280;39535;52.192;9.886;2023-04-07T00:56:24;100878.84;;;5.90;60.01
13952;BME280;39535;52.192;9.886;2023-04-07T00:58:50;100880.56;;;5.88;60.67
13952;BME280;39535;52.192;9.886;2023-04-07T01:01:20;100872.78;;;5.87;60.07
13952;BME280;39535;52.192;9.886;2023-04-07T01:03:51;100868.44;;;5.81;60.49
13952;BME280;39535;52.192;9.886;2023-04-07T01:06:20;100866.63;;;5.74;60.34
13952;BME280;39535;52.192;9.886;2023-04-07T01:08:53;100865.78;;;5.73;61.16
13952;BME280;39535;52.192;9.886;2023-04-07T01:11:27;100853.69;;;5.74;61.14
13952;BME280;39535;52.192;9.886;2023-04-07T01:13:57;100856.22;;;5.63;60.98
13952;BME280;39535;52.192;9.886;2023-04-07T01:16:29;100847.56;;;5.61;61.52
13952;BME280;39535;52.192;9.886;2023-04-07T01:19:00;100831.16;;;5.64;61.85
13952;BME280;39535;52.192;9.886;2023-04-07T01:21:32;100827.69;;;5.60;61.79
13952;BME280;39535;52.192;9.886;2023-04-07T01:26:49;100816.44;;;5.56;61.95
13952;BME280;39535;52.192;9.886;2023-04-07T01:29:25;100818.97;;;5.50;62.60
13952;BME280;39535;52.192;9.886;2023-04-07T01:31:54;100805.16;;;5.45;61.96
13952;BME280;39535;52.192;9.886;2023-04-07T01:34:23;100801.63;;;5.40;62.73
13952;BME280;39535;52.192;9.886;2023-04-07T01:36:51;100794.69;;;5.34;62.52
13952;BME280;39535;52.192;9.886;2023-04-07T01:39:18;100781.72;;;5.31;62.72
13952;BME280;39535;52.192;9.886;2023-04-07T01:41:45;100783.38;;;5.25;62.89
13952;BME280;39535;52.192;9.886;2023-04-07T01:44:12;100780.84;;;5.28;62.97
13952;BME280;39535;52.192;9.886;2023-04-07T01:46:41;100780.81;;;5.25;63.19
13952;BME280;39535;52.192;9.886;2023-04-07T01:49:07;100786.78;;;5.16;63.69
13952;BME280;39535;52.192;9.886;2023-04-07T01:51:34;100777.25;;;5.15;63.92
13952;BME280;39535;52.192;9.886;2023-04-07T01:54:01;100771.25;;;5.16;63.43
13952;BME280;39535;52.192;9.886;2023-04-07T01:56:27;100758.28;;;5.14;63.77
13952;BME280;39535;52.192;9.886;2023-04-07T01:58:54;100755.69;;;5.13;64.54
13952;BME280;39535;52.192;9.886;2023-04-07T02:01:20;100752.25;;;5.12;64.23
13952;BME280;39535;52.192;9.886;2023-04-07T02:03:52;100744.44;;;5.09;63.20
13952;BME280;39535;52.192;9.886;2023-04-07T02:06:24;100743.63;;;5.15;63.73
13952;BME280;39535;52.192;9.886;2023-04-07T02:08:55;100751.38;;;5.12;63.18
13952;BME280;39535;52.192;9.886;2023-04-07T02:11:23;100757.41;;;5.12;63.79
13952;BME280;39535;52.192;9.886;2023-04-07T02:13:52;100758.31;;;5.16;63.02
13952;BME280;39535;52.192;9.886;2023-04-07T02:16:19;100765.16;;;5.11;63.71
13952;BME280;39535;52.192;9.886;2023-04-07T02:18:49;100760.84;;;5.10;63.73
13952;BME280;39535;52.192;9.886;2023-04-07T02:21:15;100769.47;;;5.10;63.74
13952;BME280;39535;52.192;9.886;2023-04-07T02:23:42;100759.94;;;5.05;64.12
13952;BME280;39535;52.192;9.886;2023-04-07T02:26:09;100759.09;;;5.06;64.11
13952;BME280;39535;52.192;9.886;2023-04-07T02:28:35;100758.22;;;5.07;63.48
13952;BME280;39535;52.192;9.886;2023-04-07T02:31:02;100749.50;;;4.97;63.79
13952;BME280;39535;52.192;9.886;2023-04-07T02:33:28;100749.53;;;4.98;64.63
13952;BME280;39535;52.192;9.886;2023-04-07T02:35:56;100741.78;;;5.00;64.04
13952;BME280;39535;52.192;9.886;2023-04-07T02:38:22;100748.69;;;5.00;64.30
13952;BME280;39535;52.192;9.886;2023-04-07T02:40:48;100750.41;;;5.01;63.92
13952;BME280;39535;52.192;9.886;2023-04-07T02:43:15;100752.13;;;5.00;63.85
13952;BME280;39535;52.192;9.886;2023-04-07T02:45:43;100763.22;;;4.87;64.95
13952;BME280;39535;52.192;9.886;2023-04-07T02:48:09;100749.38;;;4.83;65.00
13952;BME280;39535;52.192;9.886;2023-04-07T02:50:35;100751.06;;;4.80;65.01
13952;BME280;39535;52.192;9.886;2023-04-07T02:53:03;100739.06;;;4.82;64.81
13952;BME280;39535;52.192;9.886;2023-04-07T02:55:29;100738.16;;;4.81;64.83
13952;BME280;39535;52.192;9.886;2023-04-07T02:57:56;100739.03;;;4.80;64.94
13952;BME280;39535;52.192;9.886;2023-04-07T03:00:22;100736.38;;;4.72;65.30
13952;BME280;39535;52.192;9.886;2023-04-07T03:02:48;100727.75;;;4.72;64.91
13952;BME280;39535;52.192;9.886;2023-04-07T03:05:15;100722.50;;;4.67;65.40
13952;BME280;39535;52.192;9.886;2023-04-07T03:07:41;100726.69;;;4.54;65.75
13952;BME280;39535;52.192;9.886;2023-04-07T03:10:09;100719.78;;;4.53;65.64
13952;BME280;39535;52.192;9.886;2023-04-07T03:12:36;100718.09;;;4.54;65.39
13952;BME280;39535;52.192;9.886;2023-04-07T03:15:03;100723.97;;;4.41;65.13
13952;BME280;39535;52.192;9.886;2023-04-07T03:17:30;100720.50;;;4.38;65.45
13952;BME280;39535;52.192;9.886;2023-04-07T03:19:56;100723.03;;;4.35;65.60
13952;BME280;39535;52.192;9.886;2023-04-07T03:22:22;100712.69;;;4.32;65.81
13952;BME280;39535;52.192;9.886;2023-04-07T03:24:49;100715.13;;;4.22;66.11
13952;BME280;39535;52.192;9.886;2023-04-07T03:27:16;100714.31;;;4.23;66.34
13952;BME280;39535;52.192;9.886;2023-04-07T03:29:44;100705.69;;;4.24;65.92
13952;BME280;39535;52.192;9.886;2023-04-07T03:32:11;100705.66;;;4.22;65.08
13952;BME280;39535;52.192;9.886;2023-04-07T03:34:37;100721.16;;;4.21;64.71
13952;BME280;39535;52.192;9.886;2023-04-07T03:37:03;100732.38;;;4.21;65.34
13952;BME280;39535;52.192;9.886;2023-04-07T03:39:30;100727.16;;;4.16;66.15
13952;BME280;39535;52.192;9.886;2023-04-07T03:41:56;100718.56;;;4.19;65.07
13952;BME280;39535;52.192;9.886;2023-04-07T03:44:24;100716.00;;;4.21;65.58
13952;BME280;39535;52.192;9.886;2023-04-07T03:46:50;100719.50;;;4.24;65.44
13952;BME280;39535;52.192;9.886;2023-04-07T03:49:17;100715.22;;;4.26;64.24
13952;BME280;39535;52.192;9.886;2023-04-07T03:51:44;100753.69;;;4.06;64.85
13952;BME280;39535;52.192;9.886;2023-04-07T03:54:10;100752.75;;;3.96;65.35
13952;BME280;39535;52.192;9.886;2023-04-07T03:56:36;100750.03;;;3.87;65.75
13952;BME280;39535;52.192;9.886;2023-04-07T03:59:03;100744.94;;;3.93;65.25
13952;BME280;39535;52.192;9.886;2023-04-07T04:01:31;100750.88;;;3.88;65.02
13952;BME280;39535;52.192;9.886;2023-04-07T04:03:57;100764.41;;;3.70;65.71
13952;BME280;39535;52.192;9.886;2023-04-07T04:06:23;100752.38;;;3.72;65.83
13952;BME280;39535;52.192;9.886;2023-04-07T04:08:50;100749.03;;;3.77;64.99
13952;BME280;39535;52.192;9.886;2023-04-07T04:11:16;100756.72;;;3.73;65.04
13952;BME280;39535;52.192;9.886;2023-04-07T04:13:43;100762.69;;;3.69;65.36
13952;BME280;39535;52.192;9.886;2023-04-07T04:16:09;100761.91;;;3.76;64.57
13952;BME280;39535;52.192;9.886;2023-04-07T04:18:37;100769.72;;;3.79;63.88
13952;BME280;39535;52.192;9.886;2023-04-07T04:21:03;100768.75;;;3.71;64.78
13952;BME280;39535;52.192;9.886;2023-04-07T04:23:30;100774.78;;;3.74;64.93
13952;BME280;39535;52.192;9.886;2023-04-07T04:25:56;100780.88;;;3.78;65.08
13952;BME280;39535;52.192;9.886;2023-04-07T04:28:24;100783.44;;;3.75;64.41
13952;BME280;39535;52.192;9.886;2023-04-07T04:30:50;100782.53;;;3.74;64.27
13952;BME280;39535;52.192;9.886;2023-04-07T04:33:17;100790.31;;;3.76;64.20
13952;BME280;39535;52.192;9.886;2023-04-07T04:35:45;100800.63;;;3.76;64.38
13952;BME280;39535;52.192;9.886;2023-04-07T04:38:11;100796.41;;;3.80;64.23
13952;BME280;39535;52.192;9.886;2023-04-07T04:40:38;100807.44;;;3.69;65.18
13952;BME280;39535;52.192;9.886;2023-04-07T04:43:04;100804.75;;;3.65;65.47
13952;BME280;39535;52.192;9.886;2023-04-07T04:45:31;100802.13;;;3.60;65.49
13952;BME280;39535;52.192;9.886;2023-04-07T04:47:57;100799.41;;;3.51;66.17
13952;BME280;39535;52.192;9.886;2023-04-07T04:50:24;100794.22;;;3.49;66.06
13952;BME280;39535;52.192;9.886;2023-04-07T04:52:51;100791.50;;;3.40;65.98
13952;BME280;39535;52.192;9.886;2023-04-07T04:55:18;100781.16;;;3.40;66.39
13952;BME280;39535;52.192;9.886;2023-04-07T04:57:44;100777.75;;;3.43;66.21
13952;BME280;39535;52.192;9.886;2023-04-07T05:00:11;100773.31;;;3.32;66.80
13952;BME280;39535;52.192;9.886;2023-04-07T05:02:38;100755.22;;;3.31;66.64
13952;BME280;39535;52.192;9.886;2023-04-07T05:05:05;100760.28;;;3.23;67.18
13952;BME280;39535;52.192;9.886;2023-04-07T05:07:31;100737.22;;;3.34;66.38
13952;BME280;39535;52.192;9.886;2023-04-07T05:09:59;100758.69;;;3.33;67.05
13952;BME280;39535;52.192;9.886;2023-04-07T05:12:26;100744.03;;;3.30;66.59
13952;BME280;39535;52.192;9.886;2023-04-07T05:14:52;100746.47;;;3.20;67.65
13952;BME280;39535;52.192;9.886;2023-04-07T05:17:18;100740.50;;;3.24;67.72
13952;BME280;39535;52.192;9.886;2023-04-07T05:19:45;100731.75;;;3.14;68.68
13952;BME280;39535;52.192;9.886;2023-04-07T05:22:11;100714.53;;;3.11;67.98
13952;BME280;39535;52.192;9.886;2023-04-07T05:24:37;100707.66;;;3.13;68.44
13952;BME280;39535;52.192;9.886;2023-04-07T05:27:05;100693.91;;;3.14;68.48
13952;BME280;39535;52.192;9.886;2023-04-07T05:29:31;100691.31;;;3.11;68.77
13952;BME280;39535;52.192;9.886;2023-04-07T05:31:58;100681.75;;;3.06;69.15
13952;BME280;39535;52.192;9.886;2023-04-07T05:34:25;100671.63;;;3.18;68.28
13952;BME280;39535;52.192;9.886;2023-04-07T05:36:52;100670.75;;;3.19;69.55
13952;BME280;39535;52.192;9.886;2023-04-07T05:39:18;100671.72;;;3.24;69.01
13952;BME280;39535;52.192;9.886;2023-04-07T05:41:44;100661.44;;;3.27;69.28
13952;BME280;39535;52.192;9.886;2023-04-07T05:44:12;100653.75;;;3.32;69.12
13952;BME280;39535;52.192;9.886;2023-04-07T05:46:38;100660.66;;;3.31;69.95
13952;BME280;39535;52.192;9.886;2023-04-07T05:49:05;100651.31;;;3.41;68.88
13952;BME280;39535;52.192;9.886;2023-04-07T05:51:31;100664.22;;;3.41;68.40
13952;BME280;39535;52.192;9.886;2023-04-07T05:54:00;100674.63;;;3.49;68.70
13952;BME280;39535;52.192;9.886;2023-04-07T05:56:27;100680.72;;;3.54;68.35
13952;BME280;39535;52.192;9.886;2023-04-07T05:58:53;100687.66;;;3.58;68.12
13952;BME280;39535;52.192;9.886;2023-04-07T06:01:21;100696.31;;;3.62;68.40
13952;BME280;39535;52.192;9.886;2023-04-07T06:03:48;100702.44;;;3.67;68.53
13952;BME280;39535;52.192;9.886;2023-04-07T06:06:14;100704.25;;;3.75;68.07
13952;BME280;39535;52.192;9.886;2023-04-07T06:08:40;100718.13;;;3.84;66.56
13952;BME280;39535;52.192;9.886;2023-04-07T06:11:07;100737.25;;;3.98;65.73
13952;BME280;39535;52.192;9.886;2023-04-07T06:13:33;100772.66;;;4.08;64.72
13952;BME280;39535;52.192;9.886;2023-04-07T06:15:59;100797.72;;;4.14;65.01
13952;BME280;39535;52.192;9.886;2023-04-07T06:18:27;100817.56;;;4.18;66.30
13952;BME280;39535;52.192;9.886;2023-04-07T06:20:53;100809.91;;;4.23;65.14
13952;BME280;39535;52.192;9.886;2023-04-07T06:23:20;100818.66;;;4.32;64.50
13952;BME280;39535;52.192;9.886;2023-04-07T06:25:46;100841.13;;;4.40;63.42
13952;BME280;39535;52.192;9.886;2023-04-07T06:28:16;100866.19;;;4.47;62.81
13952;BME280;39535;52.192;9.886;2023-04-07T06:30:42;100890.34;;;4.49;63.12
13952;BME280;39535;52.192;9.886;2023-04-07T06:33:08;100899.88;;;4.53;62.97
13952;BME280;39535;52.192;9.886;2023-04-07T06:35:37;100911.97;;;4.54;62.97
13952;BME280;39535;52.192;9.886;2023-04-07T06:38:03;100925.88;;;4.64;62.49
13952;BME280;39535;52.192;9.886;2023-04-07T06:40:30;100936.19;;;4.64;63.05
13952;BME280;39535;52.192;9.886;2023-04-07T06:42:56;100961.28;;;4.69;62.25
13952;BME280;39535;52.192;9.886;2023-04-07T06:45:23;100972.50;;;4.70;62.82
13952;BME280;39535;52.192;9.886;2023-04-07T06:47:49;100974.28;;;4.74;62.96
13952;BME280;39535;52.192;9.886;2023-04-07T06:50:16;100985.44;;;4.71;62.53
13952;BME280;39535;52.192;9.886;2023-04-07T06:52:46;100985.56;;;4.79;62.94
13952;BME280;39535;52.192;9.886;2023-04-07T06:55:12;100983.94;;;4.87;63.15
13952;BME280;39535;52.192;9.886;2023-04-07T06:57:39;100981.44;;;4.92;63.55
13952;BME280;39535;52.192;9.886;2023-04-07T07:00:06;100967.72;;;4.97;64.51
13952;BME280;39535;52.192;9.886;2023-04-07T07:02:33;100948.81;;;5.06;64.44
13952;BME280;39535;52.192;9.886;2023-04-07T07:05:00;100948.06;;;5.16;63.83
13952;BME280;39535;52.192;9.886;2023-04-07T07:07:27;100947.34;;;5.25;63.75
13952;BME280;39535;52.192;9.886;2023-04-07T07:09:55;100955.16;;;5.31;62.95
13952;BME280;39535;52.192;9.886;2023-04-07T07:12:22;100952.66;;;5.42;63.33
13952;BME280;39535;52.192;9.886;2023-04-07T07:14:48;100961.28;;;5.43;62.35
13952;BME280;39535;52.192;9.886;2023-04-07T07:17:14;100971.69;;;5.46;63.06
13952;BME280;39535;52.192;9.886;2023-04-07T07:19:41;100983.84;;;5.54;61.17
13952;BME280;39535;52.192;9.886;2023-04-07T07:22:07;101002.94;;;5.61;61.33
13952;BME280;39535;52.192;9.886;2023-04-07T07:24:33;101017.59;;;5.61;62.16
13952;BME280;39535;52.192;9.886;2023-04-07T07:27:02;101015.06;;;5.67;62.43
13952;BME280;39535;52.192;9.886;2023-04-07T07:29:28;101007.38;;;5.76;62.49
13952;BME280;39535;52.192;9.886;2023-04-07T07:31:55;101015.22;;;5.82;61.85
13952;BME280;39535;52.192;9.886;2023-04-07T07:34:21;101018.75;;;5.90;61.65
13952;BME280;39535;52.192;9.886;2023-04-07T07:36:48;101037.91;;;6.02;61.16
13952;BME280;39535;52.192;9.886;2023-04-07T07:39:14;101048.38;;;6.14;60.44
13952;BME280;39535;52.192;9.886;2023-04-07T07:41:40;101051.97;;;6.28;60.24
13952;BME280;39535;52.192;9.886;2023-04-07T07:44:08;101065.81;;;6.33;60.11
13952;BME280;39535;52.192;9.886;2023-04-07T07:46:34;101094.44;;;6.43;59.57
13952;BME280;39535;52.192;9.886;2023-04-07T07:49:01;101092.81;;;6.57;57.77
13952;BME280;39535;52.192;9.886;2023-04-07T07:51:29;101145.66;;;6.67;56.62
13952;BME280;39535;52.192;9.886;2023-04-07T07:53:55;101183.78;;;6.74;55.73
13952;BME280;39535;52.192;9.886;2023-04-07T07:56:22;101208.94;;;6.87;55.49
13952;BME280;39535;52.192;9.886;2023-04-07T07:58:48;101231.50;;;6.93;54.34
13952;BME280;39535;52.192;9.886;2023-04-07T08:01:16;101274.81;;;6.99;53.78
13952;BME280;39535;52.192;9.886;2023-04-07T08:03:42;101314.66;;;7.05;53.76
13952;BME280;39535;52.192;9.886;2023-04-07T08:06:09;101342.41;;;7.11;53.62
13952;BME280;39535;52.192;9.886;2023-04-07T08:08:36;101377.03;;;7.11;53.37
13952;BME280;39535;52.192;9.886;2023-04-07T08:11:02;101390.81;;;7.04;57.68
13952;BME280;39535;52.192;9.886;2023-04-07T08:13:28;101338.09;;;7.11;57.59
13952;BME280;39535;52.192;9.886;2023-04-07T08:15:55;101302.72;;;7.20;57.99
13952;BME280;39535;52.192;9.886;2023-04-07T08:18:22;101283.78;;;7.34;56.79
13952;BME280;39535;52.192;9.886;2023-04-07T08:20:49;101290.78;;;7.46;56.37
13952;BME280;39535;52.192;9.886;2023-04-07T08:23:15;101290.84;;;7.54;56.29
13952;BME280;39535;52.192;9.886;2023-04-07T08:25:42;101285.72;;;7.62;56.18
13952;BME280;39535;52.192;9.886;2023-04-07T08:28:08;101290.09;;;7.70;58.81
13952;BME280;39535;52.192;9.886;2023-04-07T08:30:35;101220.88;;;7.88;59.08
13952;BME280;39535;52.192;9.886;2023-04-07T08:33:02;101215.72;;;7.99;55.98
13952;BME280;39535;52.192;9.886;2023-04-07T08:35:30;101200.16;;;8.08;57.52
13952;BME280;39535;52.192;9.886;2023-04-07T08:37:57;101220.13;;;8.09;57.45
13952;BME280;39535;52.192;9.886;2023-04-07T08:40:23;101201.06;;;8.22;54.21
13952;BME280;39535;52.192;9.886;2023-04-07T08:42:50;101232.34;;;8.36;54.01
13952;BME280;39535;52.192;9.886;2023-04-07T08:45:17;101290.44;;;8.38;53.29
13952;BME280;39535;52.192;9.886;2023-04-07T08:47:45;101325.19;;;8.42;53.79
13952;BME280;39535;52.192;9.886;2023-04-07T08:50:16;101366.81;;;8.42;52.32
13952;BME280;39535;52.192;9.886;2023-04-07T08:52:47;101396.31;;;8.45;52.68
13952;BME280;39535;52.192;9.886;2023-04-07T08:55:14;101377.31;;;8.63;62.36
13952;BME280;39535;52.192;9.886;2023-04-07T08:57:42;101243.75;;;8.70;54.72
13952;BME280;39535;52.192;9.886;2023-04-07T09:00:09;101284.50;;;8.73;54.04
13952;BME280;39535;52.192;9.886;2023-04-07T09:02:37;101324.41;;;8.72;55.97
13952;BME280;39535;52.192;9.886;2023-04-07T09:05:06;101334.00;;;8.76;56.12
13952;BME280;39535;52.192;9.886;2023-04-07T09:07:34;101283.69;;;8.86;55.15
13952;BME280;39535;52.192;9.886;2023-04-07T09:10:03;101331.41;;;8.93;56.49
13952;BME280;39535;52.192;9.886;2023-04-07T09:12:30;101297.59;;;9.14;58.92
13952;BME280;39535;52.192;9.886;2023-04-07T09:14:57;101208.09;;;9.51;59.36
13952;BME280;39535;52.192;9.886;2023-04-07T09:17:24;101168.06;;;9.75;56.79
13952;BME280;39535;52.192;9.886;2023-04-07T09:19:52;101214.91;;;10.04;59.68
13952;BME280;39535;52.192;9.886;2023-04-07T09:22:33;101177.38;;;10.28;55.09
13952;BME280;39535;52.192;9.886;2023-04-07T09:25:12;101234.78;;;10.39;53.82
13952;BME280;39535;52.192;9.886;2023-04-07T09:27:39;101289.59;;;10.41;50.74
13952;BME280;39535;52.192;9.886;2023-04-07T09:30:13;101364.41;;;10.34;49.08
13952;BME280;39535;52.192;9.886;2023-04-07T09:32:40;101453.13;;;10.25;47.75
13952;BME280;39535;52.192;9.886;2023-04-07T09:35:06;101540.09;;;10.16;48.29
13952;BME280;39535;52.192;9.886;2023-04-07T09:37:33;101593.19;;;10.29;50.81
13952;BME280;39535;52.192;9.886;2023-04-07T09:39:59;101601.91;;;10.39;50.68
13952;BME280;39535;52.192;9.886;2023-04-07T09:42:27;101576.66;;;10.62;51.60
13952;BME280;39535;52.192;9.886;2023-04-07T09:44:57;101588.00;;;10.63;47.48
13952;BME280;39535;52.192;9.886;2023-04-07T09:47:25;101608.84;;;10.64;46.84
13952;BME280;39535;52.192;9.886;2023-04-07T09:49:54;101648.94;;;10.66;44.90
13952;BME280;39535;52.192;9.886;2023-04-07T09:55:05;101747.25;;;10.53;44.69
13952;BME280;39535;52.192;9.886;2023-04-07T09:57:36;101763.78;;;10.49;46.68
13952;BME280;39535;52.192;9.886;2023-04-07T10:00:05;101741.16;;;10.53;45.14
13952;BME280;39535;52.192;9.886;2023-04-07T10:02:32;101778.56;;;10.58;46.79
13952;BME280;39535;52.192;9.886;2023-04-07T10:04:59;101767.28;;;10.59;45.60
13952;BME280;39535;52.192;9.886;2023-04-07T10:07:25;101754.22;;;10.59;44.36
13952;BME280;39535;52.192;9.886;2023-04-07T10:09:52;101795.13;;;10.59;45.37
13952;BME280;39535;52.192;9.886;2023-04-07T10:12:18;101809.06;;;10.59;45.12
13952;BME280;39535;52.192;9.886;2023-04-07T10:14:46;101803.00;;;10.66;45.63
13952;BME280;39535;52.192;9.886;2023-04-07T10:17:14;101782.13;;;10.72;44.26
13952;BME280;39535;52.192;9.886;2023-04-07T10:19:44;101800.41;;;10.72;43.93
13952;BME280;39535;52.192;9.886;2023-04-07T10:22:12;101804.72;;;10.78;42.86
13952;BME280;39535;52.192;9.886;2023-04-07T10:24:45;101853.50;;;10.75;43.71
13952;BME280;39535;52.192;9.886;2023-04-07T10:27:22;101857.88;;;10.79;44.58
13952;BME280;39535;52.192;9.886;2023-04-07T10:29:51;101835.25;;;10.82;44.21
13952;BME280;39535;52.192;9.886;2023-04-07T10:32:18;101815.22;;;10.83;43.75
13952;BME280;39535;52.192;9.886;2023-04-07T10:34:57;101816.97;;;10.88;43.30
13952;BME280;39535;52.192;9.886;2023-04-07T10:37:25;101840.47;;;10.88;43.11
13952;BME280;39535;52.192;9.886;2023-04-07T10:42:52;101842.25;;;11.11;43.17
13952;BME280;39535;52.192;9.886;2023-04-07T10:45:52;101853.59;;;11.19;43.58
13952;BME280;39535;52.192;9.886;2023-04-07T10:48:20;101843.13;;;11.19;43.97
13952;BME280;39535;52.192;9.886;2023-04-07T10:51:10;101819.63;;;11.33;44.95
13952;BME280;39535;52.192;9.886;2023-04-07T10:57:16;101778.66;;;11.53;42.86
13952;BME280;39535;52.192;9.886;2023-04-07T11:02:49;101845.75;;;11.65;42.17
13952;BME280;39535;52.192;9.886;2023-04-07T11:05:20;101842.25;;;11.72;42.10
13952;BME280;39535;52.192;9.886;2023-04-07T11:07:52;101862.31;;;11.83;42.19
13952;BME280;39535;52.192;9.886;2023-04-07T11:10:21;101860.59;;;11.94;42.47
13952;BME280;39535;52.192;9.886;2023-04-07T11:13:02;101849.22;;;12.07;41.56
13952;BME280;39535;52.192;9.886;2023-04-07T11:15:29;101884.97;;;12.16;41.63
13952;BME280;39535;52.192;9.886;2023-04-07T11:18:08;101909.34;;;12.30;43.26
13952;BME280;39535;52.192;9.886;2023-04-07T11:20:46;101870.00;;;12.52;42.09
13952;BME280;39535;52.192;9.886;2023-04-07T11:23:16;101869.06;;;12.73;41.60
13952;BME280;39535;52.192;9.886;2023-04-07T11:25:44;101854.09;;;12.92;39.67
13952;BME280;39535;52.192;9.886;2023-04-07T11:28:11;101909.94;;;13.06;39.54
13952;BME280;39535;52.192;9.886;2023-04-07T11:30:43;101928.22;;;13.16;38.46
13952;BME280;39535;52.192;9.886;2023-04-07T11:33:15;101948.22;;;13.44;38.70
13952;BME280;39535;52.192;9.886;2023-04-07T11:35:50;101966.72;;;14.34;37.31
13952;BME280;39535;52.192;9.886;2023-04-07T11:38:17;102004.41;;;15.77;38.28
13952;BME280;39535;52.192;9.886;2023-04-07T11:40:45;102029.81;;;17.27;34.04
13952;BME280;39535;52.192;9.886;2023-04-07T11:43:18;102086.34;;;18.70;31.82
13952;BME280;39535;52.192;9.886;2023-04-07T11:45:46;102180.34;;;19.82;29.62
13952;BME280;39535;52.192;9.886;2023-04-07T11:48:27;102262.88;;;21.14;29.14
13952;BME280;39535;52.192;9.886;2023-04-07T11:50:54;102371.94;;;22.13;28.05
13952;BME280;39535;52.192;9.886;2023-04-07T11:53:30;102395.78;;;23.31;27.38
13952;BME280;39535;52.192;9.886;2023-04-07T11:56:01;102440.66;;;24.46;24.96
13952;BME280;39535;52.192;9.886;2023-04-07T11:58:28;102498.19;;;24.92;24.88
13952;BME280;39535;52.192;9.886;2023-04-07T12:00:54;102546.25;;;25.87;23.57
13952;BME280;39535;52.192;9.886;2023-04-07T12:03:21;102586.53;;;25.84;24.05
13952;BME280;39535;52.192;9.886;2023-04-07T12:05:49;102568.00;;;26.51;23.40
13952;BME280;39535;52.192;9.886;2023-04-07T12:08:16;102576.22;;;26.65;22.19
13952;BME280;39535;52.192;9.886;2023-04-07T12:10:44;102610.72;;;26.71;21.55
13952;BME280;39535;52.192;9.886;2023-04-07T12:13:12;102633.09;;;26.88;21.05
13952;BME280;39535;52.192;9.886;2023-04-07T12:15:39;102625.34;;;26.82;20.68
13952;BME280;39535;52.192;9.886;2023-04-07T12:18:14;102637.38;;;26.74;21.29
13952;BME280;39535;52.192;9.886;2023-04-07T12:20:40;102606.44;;;26.85;21.39
13952;BME280;39535;52.192;9.886;2023-04-07T12:23:08;102591.88;;;26.90;22.41
13952;BME280;39535;52.192;9.886;2023-04-07T12:25:35;102546.06;;;27.11;20.72
13952;BME280;39535;52.192;9.886;2023-04-07T12:28:01;102576.50;;;27.10;21.36
13952;BME280;39535;52.192;9.886;2023-04-07T12:30:27;102564.22;;;26.55;21.11
13952;BME280;39535;52.192;9.886;2023-04-07T12:32:53;102539.38;;;26.01;22.72
13952;BME280;39535;52.192;9.886;2023-04-07T12:35:20;102520.97;;;25.75;23.26
13952;BME280;39535;52.192;9.886;2023-04-07T12:37:46;102463.34;;;26.05;22.65
13952;BME280;39535;52.192;9.886;2023-04-07T12:40:14;102446.78;;;25.79;22.30
13952;BME280;39535;52.192;9.886;2023-04-07T12:42:42;102461.00;;;25.62;22.81
13952;BME280;39535;52.192;9.886;2023-04-07T12:45:08;102445.41;;;25.35;22.67
13952;BME280;39535;52.192;9.886;2023-04-07T12:47:35;102447.13;;;24.98;22.96
13952;BME280;39535;52.192;9.886;2023-04-07T12:50:01;102439.38;;;24.15;23.59
13952;BME280;39535;52.192;9.886;2023-04-07T12:52:28;102427.66;;;23.76;22.99
13952;BME280;39535;52.192;9.886;2023-04-07T12:54:54;102409.38;;;23.25;23.66
13952;BME280;39535;52.192;9.886;2023-04-07T12:57:22;102398.81;;;22.54;25.17
13952;BME280;39535;52.192;9.886;2023-04-07T12:59:48;102354.44;;;22.31;26.05
13952;BME280;39535;52.192;9.886;2023-04-07T13:02:16;102292.06;;;22.14;25.40
13952;BME280;39535;52.192;9.886;2023-04-07T13:04:43;102298.44;;;21.87;26.17
13952;BME280;39535;52.192;9.886;2023-04-07T13:07:11;102269.47;;;21.79;25.65
13952;BME280;39535;52.192;9.886;2023-04-07T13:09:39;102265.41;;;21.44;26.69
13952;BME280;39535;52.192;9.886;2023-04-07T13:12:07;102245.03;;;21.17;27.07
13952;BME280;39535;52.192;9.886;2023-04-07T13:14:36;102217.88;;;20.82;27.63